Detall de PIREP

Printer-friendly versionPDF version

[2014/10/05 05:49:00]
Flight IATA:CT2104
Pilot Number:041
Company ICAO:CAT
Aircraft Type:B463/A
PAX:68
Aircraft Registration:PAX
Departing Airport: LEVC
Destination Airport: LEBB
Alternate Airport:LEMD
Online: VATSIM
Route:CENTA A33 CJN UL27 LARDA UN871 RONKO UM601 CEGAM
Flight Level:FL270
No Slew and time accel
No pause
Crash detect
Detect pilot in Cockpit between each 30 and 45 minutes
05:49 Zero fuel Weight: 76687 Lbs, Fuel Weight: 20754 Lbs
05:49 VATSIM:LEVC 050530Z VRB02KT 9999 FEW018 SCT045 19/17 Q1016 NOSIG
05:49 VATSIM:LEBB 050530Z VRB01KT 9999 FEW040 BKN050 15/14 Q1021 NOSIG
05:54 Parking Brakes off
05:58 Take-off
05:58 Take off Weight: 96962 Lbs
05:58 Wind: 359º @ 002 Knots Heading: 296º
05:58 POS N39º 29´ 27´´ W000º 29´ 09´´
05:58 Gear Up: 178 Knots
05:58 Flaps:1 at 178 Knots
05:58 Flaps:0 at 190 Knots
06:12 TOC
06:12 Fuel Weight: 18474 Lb
06:13 Wind:277º@050 Knots Heading: 294º Ground Speed: 320 Knots Altitude 27034 ft
06:20 TOD
06:20 Fuel Weight: 17750 Lb
06:28 Wind:248º@037 Knots Heading: 024º Ground Speed: 426 Knots Altitude 26046 ft
06:43 Wind:061º@031 Knots Heading: 359º Ground Speed: 401 Knots Altitude 25643 ft
06:56 Flaps:1 at 220 Knots
06:58 Wind:324º@005 Knots Heading: 301º Ground Speed: 184 Knots Altitude 6200 ft
06:58 Flaps:2 at 177 Knots
06:58 Flaps:3 at 166 Knots
06:59 Gear Down: 157 Knots
06:59 Flaps:4 at 145 Knots
07:06 TouchDown:Rate -126 ft/min Speed: 115 Knots
07:06 Flaps:0 at 94 Knots
07:06 VATSIM:LEBB 050630Z 00000KT 9999 FEW040 BKN050 15/15 Q1021 NOSIG
07:06 Land
07:06 Wind:354º@000 Knots
07:06 Heading: 296º
07:06 Flight Duration: 01:08
07:06 Landing Weight: 91455 Lbs
07:06 POS N43º 18´ 13´´ W002º 55´ 04´´
07:09 Parking brakes on
07:09 Block to Block Duration: 01:15
07:09 Final Fuel: 14649 Lbls
07:09 Spent Fuel: 6104 Lbls
07:09 Flight Length: 348 NM
07:09 TOD Land Length: 239 NM

Exportar CSV

Powered by Drupal - Modified by Danger4k